createdAt,value
2023-01-23T00:01:33.592Z,77.30
2023-01-23T00:04:01.091Z,77.93
2023-01-23T00:06:28.401Z,77.93
2023-01-23T00:08:56.815Z,77.46
2023-01-23T00:11:47.942Z,77.90
2023-01-23T00:14:14.679Z,77.70
2023-01-23T00:16:41.339Z,78.20
2023-01-23T00:19:10.117Z,78.05
2023-01-23T00:21:36.666Z,77.89
2023-01-23T00:24:03.331Z,77.41
2023-01-23T00:29:48.153Z,77.89
2023-01-23T00:32:14.698Z,77.11
2023-01-23T00:34:41.263Z,77.21
2023-01-23T00:37:07.909Z,77.65
2023-01-23T00:42:15.174Z,77.86
2023-01-23T00:44:41.778Z,77.21
2023-01-23T00:47:09.192Z,77.54
2023-01-23T00:49:35.754Z,77.03
2023-01-23T00:52:11.083Z,77.73
2023-01-23T00:54:59.328Z,77.80
2023-01-23T00:57:25.886Z,77.41
2023-01-23T00:59:52.463Z,78.04
2023-01-23T01:02:19.014Z,78.11
2023-01-23T01:04:45.597Z,77.73
2023-01-23T01:07:36.298Z,77.25
2023-01-23T01:10:29.362Z,76.66
2023-01-23T01:12:57.716Z,77.60
2023-01-23T01:15:24.717Z,77.76
2023-01-23T01:17:54.170Z,77.39
2023-01-23T01:20:26.087Z,77.51
2023-01-23T01:22:54.805Z,76.86
2023-01-23T01:25:31.314Z,76.97
2023-01-23T01:27:57.851Z,76.32
2023-01-23T01:30:27.679Z,76.34
2023-01-23T01:32:55.009Z,76.06
2023-01-23T01:35:43.993Z,76.20
2023-01-23T01:38:54.907Z,75.51
2023-01-23T01:41:21.589Z,75.77
2023-01-23T01:43:49.716Z,75.91
2023-01-23T01:46:21.120Z,75.62
2023-01-23T01:49:12.830Z,75.67
2023-01-23T01:52:04.431Z,75.70
2023-01-23T01:54:36.895Z,76.18
2023-01-23T01:57:21.138Z,74.94
2023-01-23T01:59:53.922Z,75.01
2023-01-23T02:02:34.291Z,75.14
2023-01-23T02:05:58.304Z,75.80
2023-01-23T02:09:18.109Z,76.44
2023-01-23T02:11:45.286Z,76.16
2023-01-23T02:14:14.445Z,76.52
2023-01-23T02:16:46.523Z,76.70
2023-01-23T02:19:54.819Z,75.39
2023-01-23T02:22:36.026Z,74.53
2023-01-23T02:25:21.006Z,74.40
2023-01-23T02:27:47.707Z,74.71
2023-01-23T02:30:15.907Z,74.82
2023-01-23T02:32:42.579Z,75.45
2023-01-23T02:35:15.385Z,74.77
2023-01-23T02:37:45.681Z,74.85
2023-01-23T02:40:12.424Z,74.60
2023-01-23T02:42:43.091Z,74.85
2023-01-23T02:45:10.389Z,75.28
2023-01-23T02:47:36.927Z,74.85
2023-01-23T02:50:03.712Z,75.20
2023-01-23T02:52:31.977Z,75.54
2023-01-23T02:55:57.011Z,76.04
2023-01-23T03:01:05.377Z,75.51
2023-01-23T03:03:32.013Z,75.28
2023-01-23T03:05:59.271Z,75.72
2023-01-23T03:08:33.458Z,75.54
2023-01-23T03:11:01.494Z,76.02
2023-01-23T03:13:48.395Z,75.36
2023-01-23T03:16:15.360Z,75.08
2023-01-23T03:18:53.610Z,75.31
2023-01-23T03:21:21.296Z,75.43
2023-01-23T03:24:27.657Z,76.10
2023-01-23T03:27:22.445Z,75.69
2023-01-23T03:30:13.522Z,75.09
2023-01-23T03:32:40.729Z,74.60
2023-01-23T03:35:10.182Z,74.53
2023-01-23T03:37:37.076Z,75.22
2023-01-23T03:40:22.599Z,74.33
2023-01-23T03:43:05.260Z,74.61
2023-01-23T03:45:32.463Z,75.22
2023-01-23T03:47:59.085Z,75.46
2023-01-23T03:50:25.806Z,74.50
2023-01-23T03:52:52.366Z,74.60
2023-01-23T03:55:47.236Z,74.83
2023-01-23T03:58:32.849Z,75.35
2023-01-23T04:01:03.406Z,75.47
2023-01-23T04:03:30.435Z,75.39
2023-01-23T04:05:58.375Z,75.22
2023-01-23T04:08:25.322Z,74.90
2023-01-23T04:10:51.887Z,74.39
2023-01-23T04:15:53.687Z,74.42
2023-01-23T04:18:20.277Z,74.22
2023-01-23T04:20:47.653Z,73.55
2023-01-23T04:23:32.458Z,73.32
2023-01-23T04:26:53.947Z,72.90
2023-01-23T04:29:20.742Z,74.23
2023-01-23T04:31:47.465Z,73.94
2023-01-23T04:34:14.154Z,73.35
2023-01-23T04:36:40.937Z,73.83
2023-01-23T04:39:07.493Z,73.64
2023-01-23T04:41:58.629Z,73.65
2023-01-23T04:44:26.986Z,73.44
2023-01-23T04:46:54.346Z,74.22
2023-01-23T04:49:22.797Z,73.84
2023-01-23T04:51:50.188Z,73.76
2023-01-23T04:57:43.407Z,74.08
2023-01-23T05:00:10.695Z,74.18
2023-01-23T05:02:37.427Z,74.30
2023-01-23T05:05:04.298Z,74.80
2023-01-23T05:07:30.846Z,73.93
2023-01-23T05:09:57.374Z,73.34
2023-01-23T05:14:59.179Z,74.93
2023-01-23T05:17:25.816Z,73.70
2023-01-23T05:19:52.380Z,73.77
2023-01-23T05:22:19.195Z,73.86
2023-01-23T05:24:45.776Z,74.45
2023-01-23T05:33:12.302Z,73.18
2023-01-23T05:35:40.114Z,73.86
2023-01-23T05:38:07.030Z,73.61
2023-01-23T05:40:33.600Z,74.06
2023-01-23T05:43:00.157Z,75.26
2023-01-23T05:45:26.694Z,73.37
2023-01-23T05:48:04.572Z,73.72
2023-01-23T05:50:32.778Z,74.34
2023-01-23T05:53:00.327Z,74.18
2023-01-23T05:55:26.905Z,72.95
2023-01-23T05:58:51.145Z,72.71
2023-01-23T06:01:35.630Z,72.36
2023-01-23T06:04:02.300Z,74.02
2023-01-23T06:06:28.952Z,73.76
2023-01-23T06:08:55.489Z,73.40
2023-01-23T06:11:22.065Z,72.75
2023-01-23T06:13:48.672Z,71.72
2023-01-23T06:16:15.270Z,73.64
2023-01-23T06:18:41.858Z,73.88
2023-01-23T06:21:08.870Z,72.90
2023-01-23T06:23:35.421Z,72.62
2023-01-23T06:26:03.563Z,73.31
2023-01-23T06:28:30.334Z,73.84
2023-01-23T06:31:01.474Z,73.87
2023-01-23T06:33:28.161Z,72.52
2023-01-23T06:36:02.444Z,72.47
2023-01-23T06:38:29.516Z,72.87
2023-01-23T06:40:56.169Z,72.46
2023-01-23T06:43:23.977Z,73.27
2023-01-23T06:45:51.148Z,73.73
2023-01-23T06:48:18.259Z,73.01
2023-01-23T06:50:44.967Z,71.94
2023-01-23T06:53:14.837Z,73.00
2023-01-23T06:55:41.419Z,72.53
2023-01-23T06:58:08.355Z,71.05
2023-01-23T07:03:15.065Z,73.47
2023-01-23T07:05:43.444Z,73.81
2023-01-23T07:08:10.825Z,73.08
2023-01-23T07:10:40.725Z,74.45
2023-01-23T07:13:09.668Z,73.63
2023-01-23T07:15:36.695Z,73.00
2023-01-23T07:21:42.580Z,73.46
2023-01-23T07:24:09.347Z,73.45
2023-01-23T07:26:35.894Z,73.46
2023-01-23T07:29:02.527Z,72.98
2023-01-23T07:31:29.086Z,72.95
2023-01-23T07:33:55.673Z,73.36
2023-01-23T07:39:03.557Z,71.90
2023-01-23T07:41:30.116Z,71.91
2023-01-23T07:43:56.683Z,72.32
2023-01-23T07:46:48.009Z,71.93
2023-01-23T07:49:39.339Z,71.07
2023-01-23T07:52:15.165Z,72.80
2023-01-23T07:54:41.756Z,71.17
2023-01-23T07:57:08.313Z,71.04
2023-01-23T07:59:34.855Z,71.36
2023-01-23T08:02:01.453Z,70.95
2023-01-23T08:04:28.089Z,70.49
2023-01-23T08:06:54.643Z,70.91
2023-01-23T08:09:21.273Z,72.25
2023-01-23T08:11:47.804Z,71.50
2023-01-23T08:14:14.707Z,71.61
2023-01-23T08:16:41.507Z,71.66
2023-01-23T08:19:08.505Z,71.15
2023-01-23T08:21:35.372Z,70.86
2023-01-23T08:24:04.757Z,71.28
2023-01-23T08:26:31.587Z,70.84
2023-01-23T08:28:58.303Z,71.14
2023-01-23T08:31:24.926Z,70.79
2023-01-23T08:33:51.593Z,70.42
2023-01-23T08:36:18.323Z,71.42
2023-01-23T08:38:44.886Z,70.18
2023-01-23T08:41:14.433Z,69.91
2023-01-23T08:43:41.756Z,70.80
2023-01-23T08:46:10.385Z,71.32
2023-01-23T08:48:38.007Z,71.57
2023-01-23T08:51:07.694Z,70.62
2023-01-23T08:53:35.191Z,70.79
2023-01-23T08:56:06.312Z,71.39
2023-01-23T08:58:33.481Z,70.22
2023-01-23T09:01:00.728Z,69.87
2023-01-23T09:03:28.590Z,70.29
2023-01-23T09:05:55.528Z,69.68
2023-01-23T09:08:22.212Z,69.88
2023-01-23T09:10:48.850Z,70.65
2023-01-23T09:13:15.941Z,71.20
2023-01-23T09:15:42.628Z,70.71
2023-01-23T09:18:09.596Z,70.13
2023-01-23T09:20:38.028Z,69.81
2023-01-23T09:23:04.598Z,69.36
2023-01-23T09:25:31.643Z,69.55
2023-01-23T09:27:58.424Z,70.00
2023-01-23T09:30:25.053Z,69.33
2023-01-23T09:32:51.649Z,69.41
2023-01-23T09:38:07.686Z,68.40
2023-01-23T09:40:45.227Z,68.05
2023-01-23T09:43:48.987Z,67.54
2023-01-23T09:46:34.253Z,66.31
2023-01-23T09:49:08.180Z,65.60
2023-01-23T09:52:15.347Z,66.16
2023-01-23T09:55:25.119Z,64.62
2023-01-23T09:57:57.438Z,63.76
2023-01-23T10:00:32.577Z,64.01
2023-01-23T10:03:06.369Z,63.53
2023-01-23T10:06:10.818Z,62.82
2023-01-23T10:08:46.267Z,62.00
2023-01-23T10:11:27.394Z,61.88
2023-01-23T10:14:31.239Z,62.00
2023-01-23T10:17:04.251Z,62.29
2023-01-23T10:19:33.751Z,61.68
2023-01-23T10:22:06.326Z,63.96
2023-01-23T10:25:06.857Z,65.04
2023-01-23T10:27:38.780Z,65.37
2023-01-23T10:30:19.078Z,64.01
2023-01-23T10:33:01.565Z,64.23
2023-01-23T10:35:42.763Z,63.32
2023-01-23T10:38:18.601Z,64.11
2023-01-23T10:41:23.347Z,63.54
2023-01-23T10:43:52.531Z,63.53
2023-01-23T10:46:29.047Z,64.13
2023-01-23T10:48:56.388Z,63.79
2023-01-23T10:51:45.738Z,63.36
2023-01-23T10:57:14.955Z,63.43
2023-01-23T11:00:01.370Z,63.78
2023-01-23T11:02:31.232Z,63.06
2023-01-23T11:09:10.121Z,62.93
2023-01-23T11:11:36.887Z,63.23
2023-01-23T11:14:14.876Z,63.48
2023-01-23T11:16:41.581Z,64.17
2023-01-23T11:19:08.073Z,63.36
2023-01-23T11:21:56.335Z,62.16
2023-01-23T11:24:38.643Z,63.02
2023-01-23T11:27:19.442Z,62.17
2023-01-23T11:30:07.829Z,62.37
2023-01-23T11:33:08.234Z,62.30
2023-01-23T11:36:04.044Z,61.27
2023-01-23T11:38:52.280Z,61.06
2023-01-23T11:41:19.672Z,62.05
2023-01-23T11:43:46.286Z,61.57
2023-01-23T11:46:37.937Z,62.31
2023-01-23T11:49:30.617Z,61.56
2023-01-23T11:52:13.243Z,61.46
2023-01-23T11:55:12.377Z,62.84
2023-01-23T11:57:54.192Z,62.62
2023-01-23T12:00:43.175Z,61.25
2023-01-23T12:03:15.500Z,62.71
2023-01-23T12:06:13.859Z,61.63
2023-01-23T12:08:50.544Z,62.23
2023-01-23T12:11:20.424Z,61.64
2023-01-23T12:14:09.695Z,60.90
2023-01-23T12:16:48.405Z,61.26
2023-01-23T12:19:39.637Z,61.91
2023-01-23T12:22:24.226Z,60.99
2023-01-23T12:25:03.563Z,60.88
2023-01-23T12:27:46.400Z,59.78
2023-01-23T12:30:31.821Z,60.04
2023-01-23T12:33:04.411Z,60.78
2023-01-23T12:35:39.833Z,61.18
2023-01-23T12:38:27.175Z,60.25
2023-01-23T12:41:07.893Z,61.60
2023-01-23T12:43:40.439Z,61.90
2023-01-23T12:46:16.238Z,60.90
2023-01-23T12:49:06.890Z,59.85
2023-01-23T12:51:45.723Z,59.39
2023-01-23T12:54:24.958Z,60.87
2023-01-23T12:56:52.053Z,59.17
2023-01-23T12:59:50.368Z,59.67
2023-01-23T13:02:27.787Z,60.12
2023-01-23T13:05:02.742Z,59.04
2023-01-23T13:07:58.240Z,59.31
2023-01-23T13:10:24.826Z,60.05
2023-01-23T13:12:56.251Z,59.21
2023-01-23T13:15:40.072Z,59.36
2023-01-23T13:18:27.763Z,59.32
2023-01-23T13:21:19.192Z,59.70
2023-01-23T13:23:45.986Z,60.13
2023-01-23T13:26:15.793Z,61.14
2023-01-23T13:28:50.496Z,59.93
2023-01-23T13:31:46.375Z,61.25
2023-01-23T13:34:16.313Z,60.90
2023-01-23T13:36:44.979Z,60.34
2023-01-23T13:39:17.517Z,60.72
2023-01-23T13:41:46.040Z,61.38
2023-01-23T14:24:40.025Z,61.25
2023-01-23T14:27:21.988Z,62.29
2023-01-23T14:30:10.516Z,61.68
2023-01-23T14:32:38.456Z,62.75
2023-01-23T14:35:19.614Z,61.83
2023-01-23T14:37:47.111Z,62.23
2023-01-23T14:40:27.564Z,63.20
2023-01-23T14:43:00.879Z,64.87
2023-01-23T14:45:32.197Z,63.05
2023-01-23T14:48:06.091Z,62.12
2023-01-23T14:58:47.578Z,61.86
2023-01-23T15:01:14.234Z,63.02
2023-01-23T15:03:43.985Z,62.20
2023-01-23T15:09:58.612Z,61.90
2023-01-23T15:12:25.374Z,62.97
2023-01-23T15:14:56.392Z,62.74
2023-01-23T15:17:23.152Z,62.06
2023-01-23T15:19:59.341Z,63.10
2023-01-23T15:22:30.343Z,63.13
2023-01-23T15:24:57.354Z,62.38
2023-01-23T15:27:35.362Z,62.92
2023-01-23T15:30:30.109Z,64.82
2023-01-23T15:32:58.104Z,63.57
2023-01-23T15:35:25.126Z,63.44
2023-01-23T15:37:59.624Z,63.22
2023-01-23T15:40:27.965Z,62.35
2023-01-23T15:43:00.710Z,61.12
2023-01-23T15:45:27.622Z,60.71
2023-01-23T15:47:54.170Z,60.03
2023-01-23T15:50:21.272Z,60.74
2023-01-23T15:52:50.388Z,60.70
2023-01-23T15:55:18.102Z,60.28
2023-01-23T15:57:44.754Z,60.56
2023-01-23T16:00:15.026Z,60.77
2023-01-23T16:02:54.741Z,61.66
2023-01-23T16:05:25.558Z,62.26
2023-01-23T16:07:53.637Z,61.31
2023-01-23T16:10:22.230Z,62.16
2023-01-23T16:12:50.977Z,61.58
2023-01-23T16:15:38.325Z,62.11
2023-01-23T16:18:05.066Z,63.00
2023-01-23T16:20:38.277Z,62.37
2023-01-23T16:23:15.282Z,62.29
2023-01-23T16:25:45.071Z,63.08
2023-01-23T16:28:17.120Z,61.70
2023-01-23T16:30:44.248Z,61.09
2023-01-23T16:33:11.099Z,60.28
2023-01-23T16:35:37.823Z,60.83
2023-01-23T16:38:05.255Z,60.29
2023-01-23T16:40:32.701Z,59.91
2023-01-23T16:43:00.049Z,60.51
2023-01-23T16:45:29.078Z,58.71
2023-01-23T16:47:56.608Z,58.62
2023-01-23T16:50:38.961Z,59.92
2023-01-23T16:53:18.360Z,60.14
2023-01-23T16:55:45.643Z,59.87
2023-01-23T16:58:21.463Z,59.63
2023-01-23T17:00:49.226Z,59.34
2023-01-23T17:03:24.909Z,59.06
2023-01-23T17:05:51.513Z,59.81
2023-01-23T17:08:23.906Z,59.18
2023-01-23T17:11:00.022Z,59.12
2023-01-23T17:13:28.489Z,58.43
2023-01-23T17:15:56.217Z,58.38
2023-01-23T17:18:28.307Z,58.87
2023-01-23T17:20:55.786Z,59.11
2023-01-23T17:23:23.910Z,60.42
2023-01-23T17:26:00.422Z,60.41
2023-01-23T17:28:28.568Z,60.58
2023-01-23T17:30:55.663Z,60.99
2023-01-23T17:33:28.697Z,59.71
2023-01-23T17:35:56.108Z,59.48
2023-01-23T17:38:28.941Z,59.79
2023-01-23T17:40:55.518Z,61.09
2023-01-23T17:43:22.207Z,60.12
2023-01-23T17:45:51.369Z,60.15
2023-01-23T17:48:25.269Z,61.43
2023-01-23T17:50:52.071Z,60.47
2023-01-23T17:53:19.479Z,59.88
2023-01-23T17:55:49.166Z,59.69
2023-01-23T17:58:16.314Z,59.46
2023-01-23T18:00:45.969Z,59.87
2023-01-23T18:03:15.268Z,59.87
2023-01-23T18:05:41.832Z,61.43
2023-01-23T18:08:29.463Z,62.30
2023-01-23T18:10:59.063Z,62.01
2023-01-23T18:13:35.886Z,62.00
2023-01-23T18:16:12.568Z,61.89
2023-01-23T18:18:41.849Z,61.41
2023-01-23T18:21:17.961Z,62.18
2023-01-23T18:23:44.968Z,61.65
2023-01-23T18:26:26.863Z,62.15
2023-01-23T18:29:18.820Z,61.49
2023-01-23T18:32:04.076Z,61.84
2023-01-23T18:34:45.581Z,62.67
2023-01-23T18:37:41.655Z,62.57
2023-01-23T18:40:32.792Z,62.75
2023-01-23T18:43:38.703Z,63.19
2023-01-23T18:46:11.977Z,63.23
2023-01-23T18:48:41.497Z,63.87
2023-01-23T18:51:20.904Z,64.82
2023-01-23T18:54:10.240Z,63.55
2023-01-23T18:56:38.473Z,62.63
2023-01-23T18:59:19.078Z,63.15
2023-01-23T19:01:54.113Z,63.98
2023-01-23T19:04:30.744Z,63.08
2023-01-23T19:06:58.321Z,61.96
2023-01-23T19:09:26.323Z,61.23
2023-01-23T19:12:02.831Z,61.14
2023-01-23T19:14:48.369Z,61.07
2023-01-23T19:17:49.054Z,60.82
2023-01-23T19:20:32.950Z,61.33
2023-01-23T19:23:41.381Z,61.59
2023-01-23T19:26:13.376Z,62.65
2023-01-23T19:28:40.126Z,61.91
2023-01-23T19:31:16.779Z,61.92
2023-01-23T19:33:43.366Z,62.24
2023-01-23T19:36:12.785Z,62.53
2023-01-23T19:38:39.670Z,63.02
2023-01-23T19:41:06.725Z,62.60
2023-01-23T19:43:33.259Z,63.73
2023-01-23T19:46:00.246Z,64.29
2023-01-23T19:48:26.881Z,63.32
2023-01-23T19:50:53.514Z,63.15
2023-01-23T19:53:20.095Z,64.25
2023-01-23T19:55:49.938Z,63.01
2023-01-23T19:58:16.529Z,62.55
2023-01-23T20:00:43.285Z,61.76
2023-01-23T20:03:14.538Z,61.93
2023-01-23T20:05:41.265Z,64.33
2023-01-23T20:08:09.185Z,63.21
2023-01-23T20:10:36.603Z,62.96
2023-01-23T20:13:03.158Z,62.36
2023-01-23T20:15:30.587Z,62.78
2023-01-23T20:17:57.537Z,62.46
2023-01-23T20:20:24.447Z,62.29
2023-01-23T20:22:51.540Z,62.53
2023-01-23T20:25:18.423Z,62.59
2023-01-23T20:27:45.256Z,62.55
2023-01-23T20:30:17.025Z,62.52
2023-01-23T20:32:44.265Z,62.65
2023-01-23T20:35:11.089Z,62.83
2023-01-23T20:37:37.627Z,63.68
2023-01-23T20:40:04.931Z,64.06
2023-01-23T20:42:31.543Z,64.05
2023-01-23T20:44:58.096Z,63.63
2023-01-23T20:47:24.746Z,63.06
2023-01-23T20:49:53.344Z,62.68
2023-01-23T20:52:38.569Z,63.31
2023-01-23T20:55:14.313Z,64.34
2023-01-23T20:57:59.471Z,64.46
2023-01-23T21:00:26.070Z,63.65
2023-01-23T21:02:53.225Z,63.95
2023-01-23T21:05:47.863Z,64.00
2023-01-23T21:08:35.191Z,63.59
2023-01-23T21:11:14.033Z,64.17
2023-01-23T21:13:41.122Z,64.19
2023-01-23T21:16:13.558Z,64.58
2023-01-23T21:18:44.666Z,65.17
2023-01-23T21:21:14.425Z,64.79
2023-01-23T21:23:41.185Z,64.55
2023-01-23T21:26:07.759Z,64.15
2023-01-23T21:28:36.559Z,63.99
2023-01-23T21:31:14.737Z,64.29
2023-01-23T21:33:44.106Z,64.87
2023-01-23T21:36:12.168Z,64.90
2023-01-23T21:38:38.968Z,64.52
2023-01-23T21:41:05.691Z,65.19
2023-01-23T21:43:33.600Z,65.04
2023-01-23T21:46:00.411Z,64.79
2023-01-23T21:48:31.343Z,64.60
2023-01-23T21:51:15.788Z,64.29
2023-01-23T21:56:20.269Z,63.88
2023-01-23T21:58:47.468Z,64.18
2023-01-23T22:01:32.701Z,65.14
2023-01-23T22:04:01.486Z,65.11
2023-01-23T22:06:28.805Z,65.18
2023-01-23T22:09:55.797Z,65.11
2023-01-23T22:13:12.244Z,65.17
2023-01-23T22:15:39.110Z,65.50
2023-01-23T22:18:05.705Z,66.19
2023-01-23T22:20:32.270Z,65.78
2023-01-23T22:22:58.800Z,65.87
2023-01-23T22:25:25.337Z,66.29
2023-01-23T22:27:51.909Z,66.07
2023-01-23T22:30:18.841Z,65.69
2023-01-23T22:32:45.519Z,66.63
2023-01-23T22:35:12.078Z,66.01
2023-01-23T22:37:43.534Z,65.88
2023-01-23T22:40:10.913Z,66.81
2023-01-23T22:42:37.524Z,66.18
2023-01-23T22:45:18.928Z,66.59
2023-01-23T22:47:45.829Z,67.10
2023-01-23T22:50:12.416Z,66.56
2023-01-23T22:52:41.459Z,66.17
2023-01-23T22:55:40.826Z,66.47
2023-01-23T22:58:30.171Z,66.00
2023-01-23T23:00:56.765Z,65.76
2023-01-23T23:03:23.432Z,65.73
2023-01-23T23:06:04.747Z,67.58
2023-01-23T23:08:46.331Z,66.70
2023-01-23T23:11:23.528Z,66.14
2023-01-23T23:14:05.481Z,65.14
2023-01-23T23:16:32.216Z,64.89
2023-01-23T23:19:01.738Z,64.76
2023-01-23T23:21:33.294Z,65.17
2023-01-23T23:27:43.121Z,65.63
2023-01-23T23:30:10.331Z,65.92
2023-01-23T23:41:02.039Z,65.77
